Time;durP1;ratioP1;P1;durP2;ratioP2;P2;SDS_P1;SDS_P2;PMS_P1;PMS_P2;Temp;Humidity;BMP_temperature;BMP_pressure;BME280_temperature;BME280_humidity;BME280_pressure;Samples;Min_cycle;Max_cycle;Signal;HPM_P1;HPM_P2
2023/12/29 08:37:19;;;;;;;2.42;0.63;;;10.10;99.90;;;;;;5030819;23;20039;-73
2023/12/29 08:39:46;;;;;;;;;;;10.20;99.90;;;;;;4961355;28;20502;-73
2023/12/29 08:42:12;;;;;;;5.65;1.35;;;10.20;99.90;;;;;;4949985;28;19922;-73
2023/12/29 08:44:37;;;;;;;11.75;2.40;;;10.10;99.90;;;;;;4958909;28;20046;-73
2023/12/29 08:47:03;;;;;;;8.95;1.02;;;10.00;99.90;;;;;;4959393;28;20045;-73
2023/12/29 08:49:28;;;;;;;6.68;1.40;;;10.00;99.90;;;;;;4948897;28;20047;-73
2023/12/29 08:51:54;;;;;;;5.43;0.82;;;9.90;99.90;;;;;;4948330;28;20074;-73
2023/12/29 08:54:19;;;;;;;6.85;1.13;;;9.90;99.90;;;;;;4961972;28;20414;-75
2023/12/29 08:56:45;;;;;;;3.80;1.02;;;9.80;99.90;;;;;;4966646;28;20031;-74
2023/12/29 08:59:10;;;;;;;8.40;1.25;;;9.80;99.90;;;;;;4946080;28;20171;-73
2023/12/29 09:01:36;;;;;;;6.28;0.82;;;9.80;99.90;;;;;;4957974;28;20046;-72
2023/12/29 09:04:02;;;;;;;7.38;1.50;;;9.80;99.90;;;;;;4956695;28;20475;-73
2023/12/29 09:06:27;;;;;;;1.83;0.60;;;9.90;99.90;;;;;;4962337;28;20410;-73
2023/12/29 09:08:53;;;;;;;7.55;1.05;;;9.80;99.90;;;;;;4951126;28;20047;-73
2023/12/29 09:11:19;;;;;;;14.48;1.30;;;9.80;99.90;;;;;;4958859;28;20081;-73
2023/12/29 09:13:45;;;;;;;4.65;0.98;;;9.80;99.90;;;;;;4952951;28;20046;-73
2023/12/29 09:16:10;;;;;;;3.72;0.70;;;9.90;99.90;;;;;;4953480;28;20117;-73
2023/12/29 09:18:36;;;;;;;10.05;1.38;;;9.80;99.90;;;;;;4960970;28;20507;-73
2023/12/29 09:21:01;;;;;;;5.35;0.93;;;9.90;99.90;;;;;;4952254;28;20043;-73
2023/12/29 09:23:27;;;;;;;11.32;2.47;;;9.90;99.90;;;;;;4962565;28;20110;-73
2023/12/29 09:25:53;;;;;;;3.70;0.73;;;10.00;99.90;;;;;;4963542;28;20081;-73
2023/12/29 09:28:19;;;;;;;5.30;0.82;;;10.00;99.90;;;;;;4967864;28;20094;-73
2023/12/29 09:30:44;;;;;;;3.03;0.55;;;10.00;99.90;;;;;;4951000;28;20151;-74
2023/12/29 09:33:12;;;;;;;4.07;1.02;;;10.10;99.90;;;;;;4946876;28;20488;-73
2023/12/29 09:35:38;;;;;;;4.43;0.95;;;10.10;99.90;;;;;;4952426;28;20051;-73
2023/12/29 09:38:04;;;;;;;4.07;0.57;;;10.20;99.90;;;;;;4958318;28;20039;-73
2023/12/29 09:40:30;;;;;;;7.30;0.95;;;10.20;99.90;;;;;;4952542;28;20514;-75
2023/12/29 09:42:56;;;;;;;9.30;0.98;;;10.30;99.90;;;;;;4963370;28;20449;-73
2023/12/29 09:45:25;;;;;;;9.38;1.15;;;10.30;99.90;;;;;;4964411;28;20042;-73
2023/12/29 09:47:53;;;;;;;4.15;0.93;;;10.30;99.90;;;;;;4966364;28;20116;-73
2023/12/29 09:50:19;;;;;;;7.30;1.35;;;10.30;99.90;;;;;;4954523;28;20431;-73
2023/12/29 09:52:51;;;;;;;8.13;1.30;;;10.40;99.90;;;;;;4953950;28;20073;-73
2023/12/29 09:55:18;;;;;;;8.35;1.15;;;10.40;99.90;;;;;;4950442;28;20130;-73
2023/12/29 09:57:44;;;;;;;4.38;1.10;;;10.40;99.90;;;;;;4948499;28;20036;-74
2023/12/29 10:00:16;;;;;;;3.22;0.88;;;10.40;99.90;;;;;;4963342;28;20069;-72
2023/12/29 10:02:42;;;;;;;8.75;1.08;;;10.50;99.90;;;;;;4963646;28;20046;-74
2023/12/29 10:05:09;;;;;;;5.60;0.60;;;10.60;99.90;;;;;;4951497;28;20034;-72
2023/12/29 10:07:39;;;;;;;2.33;0.50;;;10.60;99.90;;;;;;4954372;28;20046;-72
2023/12/29 10:10:06;;;;;;;6.20;0.82;;;10.70;99.90;;;;;;4949538;28;20398;-73
2023/12/29 10:12:33;;;;;;;5.53;1.08;;;10.70;99.90;;;;;;4948582;28;20727;-73
2023/12/29 10:15:11;;;;;;;5.88;1.00;;;10.80;99.90;;;;;;4954029;28;20113;-73
2023/12/29 10:17:43;;;;;;;7.93;0.68;;;10.80;99.90;;;;;;4966791;28;20097;-73
2023/12/29 10:20:23;;;;;;;6.03;1.05;;;10.90;99.90;;;;;;4948386;28;20067;-72
2023/12/29 10:22:58;;;;;;;4.38;0.90;;;10.90;99.90;;;;;;4949169;28;20355;-74
2023/12/29 10:25:23;;;;;;;8.25;0.68;;;10.90;99.90;;;;;;4961999;28;20526;-72
2023/12/29 10:27:49;;;;;;;6.57;0.82;;;10.90;99.90;;;;;;4954223;28;20062;-74
2023/12/29 10:30:15;;;;;;;4.90;0.55;;;10.80;99.90;;;;;;4948172;28;20042;-73
2023/12/29 10:32:41;;;;;;;9.15;0.70;;;10.90;99.90;;;;;;4969224;28;20043;-72
2023/12/29 10:35:10;;;;;;;4.80;1.25;;;10.80;99.90;;;;;;4961404;28;20032;-74
2023/12/29 10:37:37;;;;;;;4.63;0.95;;;10.80;99.90;;;;;;4959521;28;20041;-72
2023/12/29 10:40:03;;;;;;;13.63;0.60;;;10.90;99.90;;;;;;4949633;28;20082;-75
2023/12/29 10:42:29;;;;;;;9.00;1.02;;;10.90;99.90;;;;;;4960528;28;20383;-75
2023/12/29 10:45:09;;;;;;;7.88;1.55;;;11.00;99.90;;;;;;4964993;28;20041;-73
2023/12/29 10:47:36;;;;;;;6.20;0.60;;;11.00;99.90;;;;;;4965256;28;20047;-74
2023/12/29 10:50:07;;;;;;;5.20;1.23;;;11.00;99.90;;;;;;4965760;28;20030;-74
2023/12/29 10:52:33;;;;;;;8.85;1.33;;;11.10;99.90;;;;;;4956069;28;20035;-73
2023/12/29 10:55:25;;;;;;;8.38;1.02;;;11.10;99.90;;;;;;4954591;28;20035;-74
2023/12/29 10:58:00;;;;;;;9.98;1.40;;;11.10;99.90;;;;;;4947439;28;20131;-73
2023/12/29 11:00:29;;;;;;;10.68;1.45;;;11.10;99.90;;;;;;4965809;28;20026;-72
2023/12/29 11:02:55;;;;;;;6.63;0.90;;;11.10;99.90;;;;;;4952438;28;20499;-74
2023/12/29 11:05:25;;;;;;;7.90;0.80;;;11.00;99.90;;;;;;4948292;28;20034;-73
2023/12/29 11:07:53;;;;;;;13.07;1.35;;;11.00;99.90;;;;;;4962190;28;20516;-73
2023/12/29 11:10:20;;;;;;;11.70;2.13;;;11.00;99.90;;;;;;4963271;28;20490;-73
2023/12/29 11:12:47;;;;;;;6.13;1.05;;;11.10;99.90;;;;;;4947312;28;20079;-73
2023/12/29 11:15:14;;;;;;;6.70;0.98;;;11.20;99.90;;;;;;4959367;28;20030;-73
2023/12/29 11:17:49;;;;;;;15.02;2.50;;;11.10;99.90;;;;;;4951780;28;20052;-74
2023/12/29 11:20:16;;;;;;;10.63;1.10;;;11.20;99.90;;;;;;4929179;28;20532;-73
2023/12/29 11:22:43;;;;;;;9.85;0.95;;;11.20;99.90;;;;;;4966979;28;20034;-73
2023/12/29 11:25:09;;;;;;;11.43;1.85;;;11.20;99.90;;;;;;4950707;28;20046;-73
2023/12/29 11:27:35;;;;;;;15.30;2.63;;;11.30;99.90;;;;;;4948195;28;20510;-73
2023/12/29 11:30:02;;;;;;;9.82;1.52;;;11.30;99.90;;;;;;4957451;28;20113;-73
2023/12/29 11:32:32;;;;;;;9.55;1.58;;;11.30;99.90;;;;;;4966537;28;20093;-73
2023/12/29 11:35:35;;;;;;;13.80;1.15;;;11.40;99.90;;;;;;4948141;28;20035;-74
2023/12/29 11:38:00;;;;;;;11.80;1.15;;;11.40;99.90;;;;;;4928693;28;20051;-73
2023/12/29 11:40:43;;;;;;;9.55;1.35;;;11.50;99.90;;;;;;4949284;28;20043;-73
2023/12/29 11:43:16;;;;;;;12.85;1.23;;;11.50;99.90;;;;;;4946311;28;20118;-73
2023/12/29 11:45:42;;;;;;;7.38;1.10;;;11.50;99.90;;;;;;4955867;28;20117;-73
2023/12/29 11:48:08;;;;;;;11.32;0.90;;;11.60;99.90;;;;;;4965117;28;20118;-73
2023/12/29 11:50:36;;;;;;;9.35;1.65;;;11.50;99.90;;;;;;4966124;28;20050;-73
2023/12/29 11:53:02;;;;;;;14.80;1.70;;;11.50;99.90;;;;;;4962343;28;20439;-73
2023/12/29 11:55:39;;;;;;;13.73;1.35;;;11.50;99.90;;;;;;4964306;28;20463;-73
2023/12/29 11:58:25;;;;;;;15.48;2.13;;;11.50;99.90;;;;;;4969540;28;20035;-73
2023/12/29 12:00:50;;;;;;;12.98;1.45;;;11.50;99.90;;;;;;4960938;28;20093;-74
2023/12/29 12:03:24;;;;;;;12.10;2.08;;;11.50;99.90;;;;;;4955020;28;20039;-73
2023/12/29 12:05:50;;;;;;;13.57;1.58;;;11.50;99.90;;;;;;4956321;28;20054;-73
2023/12/29 12:08:39;;;;;;;8.02;0.98;;;11.60;99.90;;;;;;4953351;28;20042;-74
2023/12/29 12:11:30;;;;;;;10.77;1.70;;;11.60;99.90;;;;;;4948273;28;20042;-73
2023/12/29 12:13:56;;;;;;;6.47;1.05;;;11.50;99.90;;;;;;4952442;28;20039;-73
2023/12/29 12:16:51;;;;;;;6.70;2.30;;;11.50;99.90;;;;;;4955677;28;20349;-73
2023/12/29 12:19:18;;;;;;;14.65;1.30;;;11.50;99.90;;;;;;4945082;28;20094;-74
2023/12/29 12:21:48;;;;;;;11.13;2.08;;;11.60;99.90;;;;;;4959203;28;20904;-73
2023/12/29 12:24:14;;;;;;;10.63;1.58;;;11.50;99.90;;;;;;4957402;28;20038;-74
2023/12/29 12:26:40;;;;;;;9.18;1.50;;;11.50;99.90;;;;;;4953949;28;20466;-74
2023/12/29 12:29:07;;;;;;;6.00;1.00;;;11.50;99.90;;;;;;4955628;28;20039;-73
2023/12/29 12:31:33;;;;;;;6.15;1.63;;;11.50;99.90;;;;;;4958054;28;20117;-74
2023/12/29 12:34:02;;;;;;;18.58;2.20;;;11.60;99.90;;;;;;4958432;28;20181;-74
2023/12/29 12:36:28;;;;;;;16.77;1.33;;;11.60;99.90;;;;;;4957796;28;20866;-73
2023/12/29 12:38:55;;;;;;;6.90;1.38;;;11.70;99.90;;;;;;4960902;28;20035;-74
2023/12/29 12:41:22;;;;;;;10.88;2.03;;;11.70;99.90;;;;;;4958854;28;20074;-73
2023/12/29 12:44:14;;;;;;;8.38;1.23;;;11.70;99.90;;;;;;4960928;28;20752;-73
2023/12/29 12:47:02;;;;;;;9.68;2.08;;;11.70;99.90;;;;;;4960226;28;20479;-74
2023/12/29 12:49:29;;;;;;;21.70;1.95;;;11.70;99.90;;;;;;4961095;28;20461;-73
2023/12/29 12:51:55;;;;;;;8.90;1.08;;;11.70;99.90;;;;;;4952942;28;20518;-75
2023/12/29 12:54:22;;;;;;;10.15;1.50;;;11.70;99.90;;;;;;4960289;28;20036;-72
2023/12/29 12:56:48;;;;;;;6.82;1.92;;;11.60;99.90;;;;;;4959195;28;20034;-73
2023/12/29 12:59:16;;;;;;;12.80;1.95;;;11.60;99.90;;;;;;4965211;28;20845;-73
2023/12/29 13:01:42;;;;;;;6.43;0.98;;;11.60;99.90;;;;;;4952156;28;20050;-73
2023/12/29 13:04:09;;;;;;;6.60;0.90;;;11.60;99.90;;;;;;4948807;28;20027;-74
2023/12/29 13:06:41;;;;;;;8.77;0.82;;;11.60;99.90;;;;;;4945962;28;20491;-74
2023/12/29 13:09:11;;;;;;;9.02;1.58;;;11.60;99.90;;;;;;4948870;28;20686;-73
2023/12/29 13:11:37;;;;;;;4.82;0.90;;;11.50;99.90;;;;;;4955701;28;20027;-73
2023/12/29 13:14:04;;;;;;;7.57;1.38;;;11.50;99.90;;;;;;4955143;28;20035;-73
2023/12/29 13:16:32;;;;;;;10.95;2.30;;;11.50;99.90;;;;;;4950947;28;20035;-74
2023/12/29 13:18:57;;;;;;;9.43;1.02;;;11.50;99.90;;;;;;4953063;28;20114;-73
2023/12/29 13:21:23;;;;;;;6.22;0.98;;;11.40;99.90;;;;;;4947377;28;20107;-74
2023/12/29 13:23:49;;;;;;;16.10;1.25;;;11.40;99.90;;;;;;4952251;28;20410;-73
2023/12/29 13:26:18;;;;;;;11.70;1.42;;;11.40;99.90;;;;;;4957111;28;20487;-73
2023/12/29 13:28:44;;;;;;;9.23;1.33;;;11.40;99.90;;;;;;4950164;28;20097;-73
2023/12/29 13:31:13;;;;;;;6.80;1.17;;;11.40;99.90;;;;;;4952252;28;20070;-74
2023/12/29 13:33:53;;;;;;;13.13;1.42;;;11.50;99.90;;;;;;4958701;28;20031;-73
2023/12/29 13:36:34;;;;;;;4.68;1.58;;;11.40;99.90;;;;;;4951569;28;20040;-73
2023/12/29 13:39:28;;;;;;;7.55;1.65;;;11.40;99.90;;;;;;4952373;28;20134;-74
2023/12/29 13:41:55;;;;;;;14.07;2.40;;;11.40;99.90;;;;;;4960029;28;20503;-72
2023/12/29 13:44:21;;;;;;;5.85;1.02;;;11.50;99.90;;;;;;4957518;28;20034;-73
2023/12/29 13:46:48;;;;;;;3.70;1.35;;;11.40;99.90;;;;;;4949974;28;20038;-73
2023/12/29 13:49:15;;;;;;;5.88;1.20;;;11.30;99.90;;;;;;4945798;28;20031;-73
2023/12/29 13:51:42;;;;;;;12.02;1.30;;;11.50;99.90;;;;;;4960693;28;20487;-74
2023/12/29 13:54:08;;;;;;;12.90;1.40;;;11.40;99.90;;;;;;4940522;28;20031;-74
2023/12/29 13:56:34;;;;;;;7.30;1.60;;;11.50;99.90;;;;;;4948174;28;20086;-73
2023/12/29 13:59:04;;;;;;;10.52;1.17;;;11.40;99.90;;;;;;4946334;28;20113;-74
2023/12/29 14:01:36;;;;;;;9.32;2.05;;;11.40;99.90;;;;;;4956811;28;20034;-74
2023/12/29 14:04:06;;;;;;;6.45;1.27;;;11.40;99.90;;;;;;4954113;28;20034;-73
2023/12/29 14:07:04;;;;;;;5.43;1.23;;;11.40;99.90;;;;;;4953242;28;20510;-73
2023/12/29 14:09:29;;;;;;;7.63;0.98;;;11.40;99.90;;;;;;4950676;28;20501;-75
2023/12/29 14:11:56;;;;;;;10.48;1.33;;;11.40;99.90;;;;;;4956359;28;20122;-75
2023/12/29 14:14:24;;;;;;;7.72;1.30;;;11.40;99.90;;;;;;4946306;28;20054;-73
2023/12/29 14:16:54;;;;;;;11.30;1.17;;;11.40;99.90;;;;;;4959235;28;20205;-73
2023/12/29 14:19:20;;;;;;;5.07;0.80;;;11.40;99.90;;;;;;4952034;28;20035;-74
2023/12/29 14:21:51;;;;;;;8.93;1.17;;;11.40;99.90;;;;;;4945527;28;21085;-72
2023/12/29 14:24:17;;;;;;;6.95;1.70;;;11.30;99.90;;;;;;4954667;28;20511;-73
2023/12/29 14:26:53;;;;;;;10.95;1.60;;;11.30;99.90;;;;;;4953621;28;20113;-73
2023/12/29 14:29:19;;;;;;;7.70;0.90;;;11.30;99.90;;;;;;4960651;28;20067;-73
2023/12/29 14:31:46;;;;;;;13.50;2.17;;;11.20;99.90;;;;;;4953642;28;20043;-73
2023/12/29 14:34:13;;;;;;;8.90;1.63;;;11.10;99.90;;;;;;4947153;28;20043;-73
2023/12/29 14:36:40;;;;;;;12.85;1.45;;;11.10;99.90;;;;;;4950874;28;20487;-74
2023/12/29 14:39:06;;;;;;;14.48;2.35;;;11.00;99.90;;;;;;4953584;28;20799;-73
2023/12/29 14:41:32;;;;;;;12.70;1.00;;;11.00;99.90;;;;;;4954001;28;20041;-73
2023/12/29 14:43:59;;;;;;;9.60;1.25;;;10.90;99.90;;;;;;4952074;28;20035;-76
2023/12/29 14:46:25;;;;;;;10.80;2.15;;;10.80;99.90;;;;;;4944782;28;20491;-75
2023/12/29 14:48:56;;;;;;;9.70;1.23;;;10.80;99.90;;;;;;4945549;28;20132;-73
2023/12/29 14:51:22;;;;;;;9.10;1.95;;;10.80;99.90;;;;;;4959895;28;20119;-74
2023/12/29 14:53:49;;;;;;;10.63;1.02;;;10.80;99.90;;;;;;4950876;28;20068;-72
2023/12/29 14:56:15;;;;;;;11.15;2.28;;;10.70;99.90;;;;;;4958181;28;20116;-73
2023/12/29 14:58:42;;;;;;;12.25;1.60;;;10.70;99.90;;;;;;4956456;28;20058;-73
2023/12/29 15:01:08;;;;;;;10.43;1.63;;;10.70;99.90;;;;;;4956211;28;20066;-73
2023/12/29 15:03:34;;;;;;;14.25;1.83;;;10.70;99.90;;;;;;4953757;28;20062;-73
2023/12/29 15:06:01;;;;;;;13.30;1.35;;;10.70;99.90;;;;;;4945863;28;20495;-73
2023/12/29 15:08:31;;;;;;;14.55;2.50;;;10.60;99.90;;;;;;4951179;28;20039;-73
2023/12/29 15:10:58;;;;;;;5.93;1.40;;;10.40;99.90;;;;;;4949434;28;20062;-75
2023/12/29 15:13:24;;;;;;;11.45;1.48;;;10.30;99.90;;;;;;4953829;28;20050;-74
2023/12/29 15:15:50;;;;;;;11.98;2.08;;;10.10;99.90;;;;;;4949319;28;20082;-73
2023/12/29 15:18:17;;;;;;;5.25;1.00;;;10.00;99.90;;;;;;4960953;28;20372;-73
2023/12/29 15:20:42;;;;;;;10.68;1.00;;;9.90;99.90;;;;;;4952441;28;20059;-74
2023/12/29 15:23:08;;;;;;;6.90;1.90;;;9.90;99.90;;;;;;4954397;28;20585;-74
2023/12/29 15:25:34;;;;;;;10.70;1.98;;;9.80;99.90;;;;;;4953015;28;20052;-74
2023/12/29 15:27:59;;;;;;;7.43;0.60;;;9.70;99.90;;;;;;4949747;28;20039;-74
2023/12/29 15:30:25;;;;;;;5.03;1.00;;;9.70;99.90;;;;;;4954462;28;20024;-73
2023/12/29 15:32:51;;;;;;;6.28;0.73;;;9.60;99.90;;;;;;4952614;28;20027;-73
2023/12/29 15:35:17;;;;;;;3.28;0.40;;;9.60;99.90;;;;;;4953374;28;20027;-73
2023/12/29 15:37:42;;;;;;;8.63;0.75;;;9.60;99.90;;;;;;4955436;28;20039;-74
2023/12/29 15:40:08;;;;;;;13.63;1.10;;;9.60;99.90;;;;;;4959340;28;20138;-74
2023/12/29 15:42:34;;;;;;;8.75;0.85;;;9.60;99.90;;;;;;4956286;28;20031;-74
2023/12/29 15:45:00;;;;;;;9.35;1.00;;;9.60;99.90;;;;;;4957274;28;20045;-74
2023/12/29 15:47:25;;;;;;;12.50;2.78;;;9.60;99.90;;;;;;4948668;28;20040;-74
2023/12/29 15:49:51;;;;;;;6.32;1.48;;;9.60;99.90;;;;;;4957362;28;20050;-75
2023/12/29 15:52:16;;;;;;;5.70;1.85;;;9.60;99.90;;;;;;4948400;28;20125;-73
2023/12/29 15:54:42;;;;;;;10.27;1.35;;;9.60;99.90;;;;;;4951819;28;20035;-74
2023/12/29 15:57:08;;;;;;;13.30;1.52;;;9.70;99.90;;;;;;4953927;28;20073;-73
2023/12/29 15:59:36;;;;;;;18.90;1.88;;;9.80;99.90;;;;;;4953882;28;20135;-74
2023/12/29 16:02:02;;;;;;;11.95;2.10;;;9.90;99.90;;;;;;4953130;28;20034;-73
2023/12/29 16:04:28;;;;;;;6.93;1.35;;;9.90;99.90;;;;;;4952551;28;20482;-74
2023/12/29 16:06:54;;;;;;;10.30;1.58;;;9.90;99.90;;;;;;4955805;28;20038;-74
2023/12/29 16:09:20;;;;;;;7.30;1.20;;;10.00;99.90;;;;;;4945457;28;20505;-74
2023/12/29 16:11:45;;;;;;;7.38;1.00;;;10.00;99.90;;;;;;4956385;28;20082;-74
2023/12/29 16:14:12;;;;;;;6.53;1.20;;;10.00;99.90;;;;;;4956509;28;20101;-73
2023/12/29 16:16:40;;;;;;;4.82;1.50;;;10.00;99.90;;;;;;4955350;28;20042;-75
2023/12/29 16:19:06;;;;;;;15.98;2.22;;;10.10;99.90;;;;;;4950601;28;20082;-73
2023/12/29 16:21:36;;;;;;;9.60;1.17;;;10.10;99.90;;;;;;4948132;28;20055;-74
2023/12/29 16:24:02;;;;;;;5.75;0.75;;;10.00;99.90;;;;;;4947916;28;20042;-74
2023/12/29 16:26:28;;;;;;;10.27;0.95;;;10.00;99.90;;;;;;4947801;29;20127;-74
2023/12/29 16:28:55;;;;;;;5.20;0.90;;;10.10;99.90;;;;;;4946879;28;20467;-74
2023/12/29 16:31:20;;;;;;;10.18;2.00;;;10.00;99.90;;;;;;4947471;28;20027;-72
2023/12/29 16:33:46;;;;;;;10.25;1.63;;;10.00;99.90;;;;;;4947867;28;20094;-73
2023/12/29 16:36:14;;;;;;;9.32;1.20;;;10.10;99.90;;;;;;4950227;28;20134;-75
2023/12/29 16:38:50;;;;;;;9.15;1.15;;;10.00;99.90;;;;;;4950998;29;20032;-75
2023/12/29 16:41:17;;;;;;;9.77;1.60;;;10.00;99.90;;;;;;4946446;28;20098;-72
2023/12/29 16:43:43;;;;;;;5.85;0.73;;;10.00;99.90;;;;;;4968198;28;20043;-73
2023/12/29 16:46:09;;;;;;;1.55;0.10;;;9.80;99.90;;;;;;4955808;28;20031;-73
2023/12/29 16:48:35;;;;;;;3.90;1.02;;;9.20;99.90;;;;;;4949960;28;20153;-73
2023/12/29 16:51:01;;;;;;;4.32;0.20;;;8.80;99.90;;;;;;4950566;28;20043;-72
2023/12/29 16:53:26;;;;;;;2.33;0.50;;;8.40;99.90;;;;;;4949651;28;20038;-73
2023/12/29 16:55:52;;;;;;;7.57;2.25;;;8.00;99.90;;;;;;4949182;28;20047;-73
2023/12/29 16:58:21;;;;;;;4.28;0.80;;;7.70;99.90;;;;;;4949392;28;20031;-73
2023/12/29 17:00:52;;;;;;;1.70;0.65;;;7.50;99.90;;;;;;4951152;28;20063;-73
2023/12/29 17:03:21;;;;;;;1.60;0.20;;;7.30;99.90;;;;;;4949150;28;20480;-73
2023/12/29 17:05:48;;;;;;;1.25;0.40;;;7.20;99.90;;;;;;4949834;28;20034;-74
2023/12/29 17:08:15;;;;;;;1.77;0.40;;;7.00;99.90;;;;;;4949987;28;20089;-72
2023/12/29 17:10:41;;;;;;;2.60;0.17;;;7.00;99.90;;;;;;4951180;28;20039;-73
2023/12/29 17:13:07;;;;;;;1.90;0.17;;;6.90;99.90;;;;;;4934732;28;20492;-73
2023/12/29 17:15:32;;;;;;;0.90;0.35;;;6.90;99.90;;;;;;4941422;28;20061;-73
2023/12/29 17:17:58;;;;;;;0.88;0.25;;;6.90;99.90;;;;;;4948986;28;20061;-73
2023/12/29 17:20:24;;;;;;;3.83;0.85;;;6.80;99.90;;;;;;4962701;28;20495;-72
2023/12/29 17:22:49;;;;;;;4.93;0.43;;;6.80;99.90;;;;;;4948885;28;20038;-73
2023/12/29 17:25:15;;;;;;;4.38;1.08;;;6.80;99.90;;;;;;4951436;28;20107;-73
2023/12/29 17:27:40;;;;;;;6.15;1.55;;;6.80;99.90;;;;;;4963769;28;20097;-73
2023/12/29 17:30:07;;;;;;;5.38;1.15;;;6.80;99.90;;;;;;4949837;28;20074;-73
2023/12/29 17:32:32;;;;;;;2.28;0.65;;;6.80;99.90;;;;;;4948831;28;20372;-73
2023/12/29 17:34:58;;;;;;;3.53;1.02;;;6.90;99.90;;;;;;4948586;28;20043;-72
2023/12/29 17:37:26;;;;;;;2.83;0.98;;;6.90;99.90;;;;;;4948735;29;20150;-73
2023/12/29 17:39:52;;;;;;;1.90;0.70;;;7.00;99.90;;;;;;4948577;28;20031;-74
2023/12/29 17:42:18;;;;;;;6.95;1.35;;;7.10;99.90;;;;;;4953542;28;20078;-73
2023/12/29 17:44:43;;;;;;;4.47;0.85;;;7.10;99.90;;;;;;4965248;28;20031;-73
2023/12/29 17:47:09;;;;;;;4.82;1.20;;;7.10;99.90;;;;;;4946812;28;20444;-72
2023/12/29 17:49:35;;;;;;;5.55;1.13;;;7.10;99.90;;;;;;4958976;28;20406;-74
2023/12/29 17:52:00;;;;;;;5.72;1.60;;;7.10;99.90;;;;;;4967302;28;20053;-74
2023/12/29 17:54:26;;;;;;;1.85;0.70;;;7.10;99.90;;;;;;4954614;28;20023;-74
2023/12/29 17:56:52;;;;;;;5.80;1.45;;;7.20;99.90;;;;;;4948813;28;20024;-73
2023/12/29 17:59:19;;;;;;;6.57;2.45;;;7.20;99.90;;;;;;4948314;28;20711;-72
2023/12/29 18:01:55;;;;;;;6.95;2.45;;;7.30;99.90;;;;;;4948481;28;20054;-74
2023/12/29 18:04:21;;;;;;;6.57;1.33;;;7.30;99.90;;;;;;4948142;28;20028;-73
2023/12/29 18:06:46;;;;;;;6.10;1.17;;;7.30;99.90;;;;;;4948736;28;20039;-72
2023/12/29 18:09:13;;;;;;;2.80;1.00;;;7.30;99.90;;;;;;4947497;28;20112;-74
2023/12/29 18:11:39;;;;;;;4.90;0.80;;;7.30;99.90;;;;;;4964383;28;20061;-73
2023/12/29 18:14:05;;;;;;;5.57;1.25;;;7.30;99.90;;;;;;4960408;28;20051;-73
2023/12/29 18:16:33;;;;;;;6.35;1.15;;;7.40;99.90;;;;;;4961930;28;20113;-74
2023/12/29 18:19:00;;;;;;;4.15;1.30;;;7.30;99.90;;;;;;4950202;28;20122;-75
2023/12/29 18:21:26;;;;;;;7.38;1.75;;;7.30;99.90;;;;;;4954100;28;20501;-73
2023/12/29 18:23:51;;;;;;;4.00;1.80;;;7.40;99.90;;;;;;4935488;28;20043;-73
2023/12/29 18:26:17;;;;;;;3.53;1.40;;;7.40;99.90;;;;;;4957713;28;20031;-73
2023/12/29 18:28:43;;;;;;;4.90;1.10;;;7.40;99.90;;;;;;4968408;28;20034;-73
2023/12/29 18:31:13;;;;;;;4.28;1.45;;;7.40;99.90;;;;;;4963057;28;20491;-73
2023/12/29 18:33:47;;;;;;;7.47;1.17;;;7.30;99.90;;;;;;4955113;28;20035;-73
2023/12/29 18:36:13;;;;;;;3.75;0.75;;;7.40;99.90;;;;;;4951782;28;20864;-72
2023/12/29 18:38:38;;;;;;;3.78;0.80;;;7.40;99.90;;;;;;4947952;28;20035;-73
2023/12/29 18:41:07;;;;;;;3.40;0.90;;;7.40;99.90;;;;;;4945722;28;20126;-73
2023/12/29 18:43:33;;;;;;;3.10;1.42;;;7.40;99.90;;;;;;4947524;28;20097;-74
2023/12/29 18:46:08;;;;;;;4.15;1.70;;;7.30;99.90;;;;;;4946837;28;20106;-73
2023/12/29 18:48:34;;;;;;;6.38;1.30;;;7.40;99.90;;;;;;4946966;29;20038;-73
2023/12/29 18:51:01;;;;;;;7.50;1.80;;;7.40;99.90;;;;;;4946160;28;20047;-73
2023/12/29 18:53:26;;;;;;;11.70;2.70;;;7.40;99.90;;;;;;4960591;28;20046;-73
2023/12/29 18:55:52;;;;;;;11.15;3.25;;;7.40;99.90;;;;;;4967827;28;20039;-72
2023/12/29 18:58:18;;;;;;;10.02;1.75;;;7.40;99.90;;;;;;4954192;28;20044;-74
2023/12/29 19:00:45;;;;;;;5.43;2.28;;;7.40;99.90;;;;;;4967005;28;20403;-76
2023/12/29 19:03:11;;;;;;;10.18;2.22;;;7.50;99.90;;;;;;4951567;28;20484;-73
2023/12/29 19:05:36;;;;;;;5.80;2.10;;;7.60;99.90;;;;;;4947180;28;20027;-74
2023/12/29 19:08:02;;;;;;;7.57;1.70;;;7.60;99.90;;;;;;4960560;28;20039;-73
2023/12/29 19:10:29;;;;;;;6.15;1.25;;;7.60;99.90;;;;;;4966240;28;20037;-72
2023/12/29 19:12:54;;;;;;;4.75;1.58;;;7.70;99.90;;;;;;4948396;28;20068;-72
2023/12/29 19:15:20;;;;;;;8.38;1.10;;;7.70;99.90;;;;;;4947863;28;20031;-74
2023/12/29 19:17:46;;;;;;;11.65;4.05;;;7.70;99.90;;;;;;4954035;28;20039;-73
2023/12/29 19:20:12;;;;;;;9.30;2.17;;;7.80;99.90;;;;;;4961819;28;20477;-73
2023/12/29 19:22:40;;;;;;;6.85;1.83;;;7.80;99.90;;;;;;4966253;28;20061;-72
2023/12/29 19:25:05;;;;;;;14.52;1.63;;;7.80;99.90;;;;;;4966739;28;20089;-72
2023/12/29 19:27:31;;;;;;;6.00;1.52;;;7.90;99.90;;;;;;4956800;28;20047;-75
2023/12/29 19:29:56;;;;;;;8.10;1.48;;;7.90;99.90;;;;;;4953249;28;20102;-74
2023/12/29 19:32:22;;;;;;;8.13;1.20;;;8.00;99.90;;;;;;4962170;28;20038;-72
2023/12/29 19:34:49;;;;;;;5.28;1.27;;;8.00;99.90;;;;;;4947611;28;20035;-74
2023/12/29 19:37:14;;;;;;;4.85;1.05;;;8.10;99.90;;;;;;4945736;28;20039;-72
2023/12/29 19:39:41;;;;;;;3.63;1.20;;;8.20;99.90;;;;;;4958309;28;20050;-73
2023/12/29 19:42:07;;;;;;;7.35;1.27;;;8.30;99.90;;;;;;4957046;28;20074;-73
2023/12/29 19:44:33;;;;;;;1.98;0.52;;;8.20;99.90;;;;;;4951011;28;20069;-72
2023/12/29 19:46:59;;;;;;;1.55;0.57;;;8.30;99.90;;;;;;4964894;28;20054;-73
2023/12/29 19:49:24;;;;;;;4.03;1.08;;;8.30;99.90;;;;;;4959849;28;20032;-74
2023/12/29 19:51:50;;;;;;;4.30;0.65;;;8.30;99.90;;;;;;4946032;28;20061;-73
2023/12/29 19:54:16;;;;;;;8.48;0.50;;;8.30;99.90;;;;;;4946626;28;20109;-73
2023/12/29 19:56:41;;;;;;;2.17;0.60;;;8.30;99.90;;;;;;4966101;28;20117;-73
2023/12/29 19:59:07;;;;;;;2.78;0.60;;;8.30;99.90;;;;;;4965014;28;20399;-74
2023/12/29 20:01:34;;;;;;;1.23;0.30;;;8.30;99.90;;;;;;4967237;28;20049;-72
2023/12/29 20:04:00;;;;;;;4.55;0.63;;;8.30;99.90;;;;;;4964990;28;20035;-74
2023/12/29 20:06:26;;;;;;;3.55;0.63;;;8.40;99.90;;;;;;4966058;28;20141;-73
2023/12/29 20:08:52;;;;;;;1.98;0.40;;;8.40;99.90;;;;;;4966449;28;20035;-74
2023/12/29 20:11:19;;;;;;;4.07;0.22;;;8.50;99.90;;;;;;4957453;28;20236;-73
2023/12/29 20:13:44;;;;;;;0.77;0.20;;;8.50;99.90;;;;;;4960476;28;20032;-73
2023/12/29 20:16:22;;;;;;;3.05;0.22;;;8.50;99.90;;;;;;4949669;28;20715;-73
2023/12/29 20:18:49;;;;;;;3.95;0.30;;;8.60;99.90;;;;;;4950110;29;20133;-73
2023/12/29 20:21:25;;;;;;;0.85;0.32;;;8.70;99.90;;;;;;4949743;28;20070;-73
2023/12/29 20:23:52;;;;;;;2.05;0.20;;;8.60;99.90;;;;;;4950179;28;20062;-73
2023/12/29 20:26:22;;;;;;;0.82;0.13;;;8.70;99.90;;;;;;4954804;28;20077;-73
2023/12/29 20:28:50;;;;;;;8.02;1.05;;;8.60;99.90;;;;;;4969501;28;20495;-74
2023/12/29 20:31:27;;;;;;;3.97;1.40;;;8.60;99.90;;;;;;4964624;28;20067;-74
2023/12/29 20:33:53;;;;;;;1.92;0.30;;;8.60;99.90;;;;;;4958714;28;20046;-74
2023/12/29 20:36:19;;;;;;;1.65;0.38;;;8.60;99.90;;;;;;4955810;28;20047;-75
2023/12/29 20:38:46;;;;;;;0.60;0.45;;;8.40;99.90;;;;;;4953054;28;20031;-73
2023/12/29 20:41:12;;;;;;;1.30;0.30;;;8.00;99.90;;;;;;4960950;28;20263;-73
2023/12/29 20:43:38;;;;;;;2.13;0.40;;;7.70;99.90;;;;;;4966372;28;20122;-73
2023/12/29 20:46:04;;;;;;;3.58;0.55;;;7.40;99.90;;;;;;4966618;28;20542;-73
2023/12/29 20:48:29;;;;;;;2.78;1.23;;;7.30;99.90;;;;;;4962653;28;20035;-73
2023/12/29 20:50:55;;;;;;;6.57;2.00;;;7.20;99.90;;;;;;4949584;28;20118;-74
2023/12/29 20:53:20;;;;;;;3.42;0.43;;;7.10;99.90;;;;;;4958289;28;20043;-74
2023/12/29 20:55:48;;;;;;;3.25;0.43;;;7.10;99.90;;;;;;4969597;28;20038;-74
2023/12/29 20:58:13;;;;;;;3.72;0.43;;;7.00;99.90;;;;;;4968069;28;20069;-74
2023/12/29 21:00:39;;;;;;;1.77;0.52;;;7.00;99.90;;;;;;4953298;28;20035;-75
2023/12/29 21:03:06;;;;;;;1.27;0.20;;;7.00;99.90;;;;;;4948969;28;20043;-73
2023/12/29 21:05:32;;;;;;;1.30;0.20;;;7.10;99.90;;;;;;4948271;28;20114;-74
2023/12/29 21:07:58;;;;;;;1.40;0.15;;;7.20;99.90;;;;;;4955588;28;20035;-74
2023/12/29 21:10:23;;;;;;;3.63;0.70;;;7.20;99.90;;;;;;4941159;28;20478;-74
2023/12/29 21:12:49;;;;;;;2.17;0.32;;;7.20;99.90;;;;;;4949599;28;20082;-74
2023/12/29 21:15:15;;;;;;;1.83;0.30;;;7.20;99.90;;;;;;4947524;28;20373;-74
2023/12/29 21:17:40;;;;;;;2.03;0.43;;;7.10;99.90;;;;;;4946276;28;20227;-74
2023/12/29 21:20:07;;;;;;;3.53;0.45;;;7.10;99.90;;;;;;4948506;28;20054;-74
2023/12/29 21:22:35;;;;;;;4.47;0.30;;;7.10;99.90;;;;;;4949019;28;20043;-74
2023/12/29 21:25:02;;;;;;;1.52;0.40;;;7.20;99.90;;;;;;4948871;28;20035;-74
2023/12/29 21:27:28;;;;;;;6.25;1.50;;;7.20;99.90;;;;;;4950064;28;20035;-74
2023/12/29 21:29:54;;;;;;;6.10;1.05;;;7.10;99.90;;;;;;4949645;28;20039;-74